createdAt,value
2022-11-14T00:04:49.524Z,5.22
2022-11-14T00:10:12.275Z,5.07
2022-11-14T00:15:34.000Z,5.08
2022-11-14T00:20:55.767Z,4.86
2022-11-14T00:26:17.610Z,5.00
2022-11-14T00:31:39.366Z,5.06
2022-11-14T00:37:01.502Z,4.97
2022-11-14T00:42:23.308Z,4.98
2022-11-14T00:47:45.121Z,4.87
2022-11-14T00:53:07.403Z,4.92
2022-11-14T00:58:29.734Z,4.90
2022-11-14T01:03:52.410Z,4.89
2022-11-14T01:09:14.228Z,4.83
2022-11-14T01:14:36.184Z,4.81
2022-11-14T01:19:57.936Z,4.75
2022-11-14T01:25:19.671Z,4.76
2022-11-14T01:30:41.637Z,4.76
2022-11-14T01:36:03.692Z,4.56
2022-11-14T01:41:25.543Z,4.56
2022-11-14T01:46:53.225Z,4.57
2022-11-14T01:52:21.784Z,4.50
2022-11-14T01:57:47.115Z,4.57
2022-11-14T02:03:09.793Z,4.50
2022-11-14T02:08:33.556Z,4.46
2022-11-14T02:13:55.651Z,4.44
2022-11-14T02:19:17.508Z,4.50
2022-11-14T02:24:39.206Z,4.48
2022-11-14T02:30:13.583Z,4.44
2022-11-14T02:35:35.297Z,4.23
2022-11-14T02:40:58.952Z,4.09
2022-11-14T02:46:20.687Z,4.15
2022-11-14T02:51:42.438Z,4.33
2022-11-14T02:57:04.150Z,4.12
2022-11-14T03:02:26.116Z,4.11
2022-11-14T03:07:48.249Z,4.05
2022-11-14T03:13:09.950Z,4.06
2022-11-14T03:18:32.008Z,4.00
2022-11-14T03:23:53.960Z,4.00
2022-11-14T03:29:15.767Z,4.09
2022-11-14T03:34:37.466Z,3.88
2022-11-14T03:39:59.231Z,3.96
2022-11-14T03:45:20.984Z,3.85
2022-11-14T03:50:43.661Z,3.93
2022-11-14T03:56:05.910Z,4.21
2022-11-14T04:01:29.117Z,4.31
2022-11-14T04:06:50.923Z,4.19
2022-11-14T04:12:15.671Z,4.31
2022-11-14T04:17:39.992Z,4.25
2022-11-14T04:23:01.829Z,4.15
2022-11-14T04:28:23.533Z,4.07
2022-11-14T04:33:45.261Z,3.98
2022-11-14T04:39:07.031Z,3.99
2022-11-14T04:44:28.735Z,3.97
2022-11-14T04:49:50.506Z,4.01
2022-11-14T04:55:12.208Z,4.14
2022-11-14T05:00:33.976Z,4.19
2022-11-14T05:06:01.046Z,3.98
2022-11-14T05:11:26.668Z,4.11
2022-11-14T05:16:50.802Z,4.06
2022-11-14T05:22:12.489Z,4.11
2022-11-14T05:27:34.220Z,4.02
2022-11-14T05:32:55.923Z,4.04
2022-11-14T05:38:17.615Z,3.84
2022-11-14T05:43:40.353Z,4.03
2022-11-14T05:49:02.114Z,4.01
2022-11-14T05:54:23.810Z,4.22
2022-11-14T05:59:45.520Z,4.22
2022-11-14T06:05:07.453Z,4.20
2022-11-14T06:10:29.529Z,4.24
2022-11-14T06:15:51.243Z,4.43
2022-11-14T06:21:18.215Z,4.50
2022-11-14T06:26:39.978Z,4.54
2022-11-14T06:32:01.670Z,4.59
2022-11-14T06:37:23.364Z,4.84
2022-11-14T06:42:45.062Z,4.84
2022-11-14T06:48:07.014Z,4.81
2022-11-14T06:53:30.633Z,5.02
2022-11-14T06:58:52.439Z,5.25
2022-11-14T07:04:14.250Z,5.37
2022-11-14T07:09:36.007Z,5.39
2022-11-14T07:14:57.711Z,5.38
2022-11-14T07:20:19.498Z,5.49
2022-11-14T07:25:41.876Z,5.59
2022-11-14T07:31:04.742Z,5.52
2022-11-14T07:36:26.444Z,5.44
2022-11-14T07:41:48.178Z,5.42
2022-11-14T07:47:09.884Z,5.35
2022-11-14T07:52:31.686Z,5.47
2022-11-14T07:57:54.842Z,5.60
2022-11-14T08:03:16.561Z,5.72
2022-11-14T08:08:38.418Z,5.77
2022-11-14T08:14:00.131Z,5.92
2022-11-14T08:19:21.930Z,5.93
2022-11-14T08:24:43.616Z,5.86
2022-11-14T08:30:05.785Z,5.94
2022-11-14T08:35:27.542Z,5.98
2022-11-14T08:40:49.250Z,5.97
2022-11-14T08:46:10.980Z,5.95
2022-11-14T08:51:32.732Z,6.32
2022-11-14T08:56:54.546Z,6.69
2022-11-14T09:02:16.446Z,7.48
2022-11-14T09:07:38.326Z,7.66
2022-11-14T09:13:01.614Z,7.71
2022-11-14T09:18:23.374Z,7.90
2022-11-14T09:23:47.723Z,7.90
2022-11-14T09:29:09.542Z,8.13
2022-11-14T09:34:31.484Z,8.21
2022-11-14T09:39:53.222Z,8.24
2022-11-14T09:45:17.124Z,8.46
2022-11-14T09:50:47.992Z,8.50
2022-11-14T09:56:18.646Z,8.50
2022-11-14T10:02:04.903Z,8.52
2022-11-14T10:07:44.263Z,8.59
2022-11-14T10:13:43.874Z,8.67
2022-11-14T10:19:13.644Z,8.57
2022-11-14T10:25:07.402Z,8.36
2022-11-14T10:30:46.471Z,8.12
2022-11-14T10:36:40.303Z,8.09
2022-11-14T10:42:10.843Z,8.10
2022-11-14T10:47:40.633Z,8.21
2022-11-14T10:53:07.046Z,8.32
2022-11-14T10:58:29.402Z,8.51
2022-11-14T11:03:51.362Z,8.68
2022-11-14T11:09:45.269Z,8.78
2022-11-14T11:15:13.333Z,8.92
2022-11-14T11:20:38.680Z,8.99
2022-11-14T11:26:07.790Z,9.08
2022-11-14T11:31:50.122Z,9.22
2022-11-14T11:37:20.915Z,9.36
2022-11-14T11:48:40.488Z,9.47
2022-11-14T11:54:26.972Z,9.49
2022-11-14T11:59:54.087Z,9.53
2022-11-14T12:05:29.634Z,9.53
2022-11-14T12:10:53.268Z,9.52
2022-11-14T12:16:30.442Z,9.63
2022-11-14T12:22:22.714Z,9.71
2022-11-14T12:28:04.242Z,9.88
2022-11-14T12:33:36.970Z,9.95
2022-11-14T12:39:00.112Z,10.05
2022-11-14T12:44:27.622Z,10.33
2022-11-14T12:49:52.667Z,10.43
2022-11-14T12:55:43.478Z,10.67
2022-11-14T13:01:31.322Z,10.51
2022-11-14T13:06:55.912Z,10.71
2022-11-14T13:12:47.601Z,10.64
2022-11-14T13:18:40.137Z,10.58
2022-11-14T13:24:02.501Z,10.70
2022-11-14T13:29:48.153Z,10.59
2022-11-14T13:35:24.945Z,10.62
2022-11-14T13:40:59.152Z,10.57
2022-11-14T13:46:41.453Z,10.56
2022-11-14T13:52:03.367Z,10.54
2022-11-14T13:57:27.988Z,10.60
2022-11-14T14:03:01.702Z,10.73
2022-11-14T14:08:48.973Z,10.95
2022-11-14T14:14:50.251Z,10.85
2022-11-14T14:20:35.095Z,10.78
2022-11-14T14:26:13.714Z,10.80
2022-11-14T14:31:41.501Z,10.96
2022-11-14T14:37:03.253Z,11.07
2022-11-14T14:42:29.619Z,10.91
2022-11-14T14:48:12.621Z,10.85
2022-11-14T14:53:35.960Z,11.02
2022-11-14T14:58:57.696Z,11.26
2022-11-14T15:04:21.942Z,11.01
2022-11-14T15:09:52.862Z,11.01
2022-11-14T15:15:16.486Z,11.03
2022-11-14T15:20:38.215Z,10.93
2022-11-14T15:26:05.226Z,10.95
2022-11-14T15:31:27.001Z,10.84
2022-11-14T15:37:16.376Z,10.79
2022-11-14T15:42:38.197Z,10.79
2022-11-14T15:48:04.858Z,10.83
2022-11-14T15:53:28.699Z,10.67
2022-11-14T15:58:51.003Z,10.58
2022-11-14T16:04:18.814Z,10.49
2022-11-14T16:09:41.095Z,10.40
2022-11-14T16:15:02.846Z,10.34
2022-11-14T16:20:27.590Z,10.28
2022-11-14T16:25:49.309Z,10.18
2022-11-14T16:31:12.521Z,10.21
2022-11-14T16:36:34.234Z,10.14
2022-11-14T16:42:02.827Z,10.08
2022-11-14T16:47:24.602Z,10.00
2022-11-14T16:52:46.317Z,9.95
2022-11-14T16:58:08.064Z,9.92
2022-11-14T17:03:31.941Z,9.87
2022-11-14T17:08:58.266Z,9.90
2022-11-14T17:14:19.985Z,9.90
2022-11-14T17:19:45.937Z,9.90
2022-11-14T17:25:08.271Z,9.95
2022-11-14T17:30:29.986Z,9.92
2022-11-14T17:35:51.986Z,9.90
2022-11-14T17:41:14.021Z,9.87
2022-11-14T17:46:35.753Z,9.83
2022-11-14T17:51:57.486Z,9.92
2022-11-14T17:57:19.182Z,10.01
2022-11-14T18:02:40.910Z,9.97
2022-11-14T18:08:02.644Z,10.01
2022-11-14T18:13:24.361Z,9.98
2022-11-14T18:18:46.205Z,9.96
2022-11-14T18:24:12.950Z,10.01
2022-11-14T18:29:34.673Z,9.95
2022-11-14T18:34:56.375Z,9.85
2022-11-14T18:40:18.157Z,9.86
2022-11-14T18:45:39.854Z,9.92
2022-11-14T18:51:02.868Z,9.99
2022-11-14T18:56:25.660Z,9.90
2022-11-14T19:01:47.400Z,9.91
2022-11-14T19:07:10.020Z,9.90
2022-11-14T19:12:31.842Z,9.82
2022-11-14T19:17:53.588Z,9.78
2022-11-14T19:23:15.428Z,9.79
2022-11-14T19:28:37.567Z,9.74
2022-11-14T19:34:00.355Z,9.74
2022-11-14T19:39:22.066Z,9.72
2022-11-14T19:44:43.858Z,9.68
2022-11-14T19:50:06.004Z,9.45
2022-11-14T19:55:27.922Z,9.40
2022-11-14T20:00:49.642Z,9.29
2022-11-14T20:06:17.421Z,9.33
2022-11-14T20:11:39.383Z,9.34
2022-11-14T20:17:01.186Z,9.57
2022-11-14T20:22:22.888Z,9.62
2022-11-14T20:27:44.690Z,9.65
2022-11-14T20:33:08.056Z,9.64
2022-11-14T20:38:31.191Z,9.69
2022-11-14T20:43:52.986Z,9.69
2022-11-14T20:49:14.877Z,9.67
2022-11-14T20:54:36.735Z,9.70
2022-11-14T20:59:58.591Z,9.76
2022-11-14T21:05:20.276Z,9.71
2022-11-14T21:10:47.443Z,9.67
2022-11-14T21:16:16.088Z,9.62
2022-11-14T21:21:38.523Z,9.62
2022-11-14T21:27:00.226Z,9.57
2022-11-14T21:32:21.930Z,9.56
2022-11-14T21:37:43.624Z,9.59
2022-11-14T21:43:05.336Z,9.49
2022-11-14T21:48:31.343Z,9.27
2022-11-14T21:53:55.549Z,9.23
2022-11-14T21:59:21.212Z,9.17
2022-11-14T22:04:42.932Z,9.18
2022-11-14T22:10:04.961Z,9.16
2022-11-14T22:15:26.705Z,9.15
2022-11-14T22:20:48.433Z,9.19
2022-11-14T22:26:11.749Z,9.16
2022-11-14T22:31:33.592Z,9.12
2022-11-14T22:36:55.290Z,9.02
2022-11-14T22:42:17.001Z,9.00
2022-11-14T22:47:38.721Z,8.98
2022-11-14T22:53:01.467Z,9.05
2022-11-14T22:58:23.612Z,9.07
2022-11-14T23:03:48.049Z,9.02
2022-11-14T23:09:09.940Z,9.03
2022-11-14T23:14:31.680Z,9.11
2022-11-14T23:19:53.448Z,9.19
2022-11-14T23:25:15.319Z,9.24
2022-11-14T23:30:37.102Z,9.16
2022-11-14T23:35:59.042Z,9.19
2022-11-14T23:41:23.512Z,9.17
2022-11-14T23:46:45.258Z,9.23
2022-11-14T23:52:06.964Z,9.27
2022-11-14T23:57:28.664Z,9.23
